createdAt,value
2018-12-18T00:02:02.946Z,22.70
2018-12-18T00:04:32.225Z,22.90
2018-12-18T00:07:01.479Z,23.00
2018-12-18T00:09:30.748Z,22.90
2018-12-18T00:11:59.970Z,22.70
2018-12-18T00:14:29.144Z,22.80
2018-12-18T00:16:58.401Z,23.00
2018-12-18T00:19:27.661Z,23.20
2018-12-18T00:21:56.933Z,23.30
2018-12-18T00:24:26.135Z,23.20
2018-12-18T00:26:55.507Z,22.90
2018-12-18T00:29:24.882Z,22.70
2018-12-18T00:31:54.149Z,22.90
2018-12-18T00:34:23.736Z,22.60
2018-12-18T00:36:53.013Z,22.80
2018-12-18T00:39:22.243Z,22.80
2018-12-18T00:41:54.236Z,22.40
2018-12-18T00:44:23.990Z,22.40
2018-12-18T00:46:53.158Z,22.20
2018-12-18T00:49:22.347Z,22.30
2018-12-18T00:51:51.578Z,22.30
2018-12-18T00:54:21.607Z,22.20
2018-12-18T00:56:51.046Z,22.10
2018-12-18T00:59:20.223Z,22.10
2018-12-18T01:01:54.991Z,21.80
2018-12-18T01:04:24.230Z,21.80
2018-12-18T01:06:53.485Z,21.20
2018-12-18T01:09:22.687Z,21.10
2018-12-18T01:11:51.975Z,21.50
2018-12-18T01:14:21.302Z,21.30
2018-12-18T01:16:50.546Z,21.10
2018-12-18T01:19:19.729Z,21.40
2018-12-18T01:21:50.001Z,21.50
2018-12-18T01:24:19.187Z,21.60
2018-12-18T01:26:48.465Z,21.70
2018-12-18T01:29:17.732Z,21.40
2018-12-18T01:31:46.965Z,21.30
2018-12-18T01:34:16.148Z,21.20
2018-12-18T01:36:45.301Z,21.30
2018-12-18T01:39:14.629Z,20.90
2018-12-18T01:41:43.789Z,21.10
2018-12-18T01:44:13.036Z,21.30
2018-12-18T01:46:42.310Z,21.50
2018-12-18T01:49:11.519Z,21.60
2018-12-18T01:51:40.721Z,21.70
2018-12-18T01:54:21.003Z,21.70
2018-12-18T01:56:57.864Z,21.60
2018-12-18T01:59:27.315Z,21.70
2018-12-18T02:02:04.031Z,21.60
2018-12-18T02:04:48.098Z,21.60
2018-12-18T02:07:25.185Z,21.60
2018-12-18T02:10:02.025Z,21.60
2018-12-18T02:12:39.143Z,21.60
2018-12-18T02:15:21.199Z,21.50
2018-12-18T02:18:01.023Z,21.50
2018-12-18T02:20:30.308Z,21.40
2018-12-18T02:22:59.523Z,21.30
2018-12-18T02:25:32.543Z,21.10
2018-12-18T02:28:02.610Z,21.10
2018-12-18T02:30:31.890Z,21.20
2018-12-18T02:33:01.058Z,21.00
2018-12-18T02:35:30.301Z,21.00
2018-12-18T02:37:59.520Z,21.10
2018-12-18T02:40:30.155Z,21.10
2018-12-18T02:42:59.388Z,21.10
2018-12-18T02:45:28.585Z,20.90
2018-12-18T02:47:57.812Z,20.90
2018-12-18T02:50:27.430Z,20.90
2018-12-18T02:52:56.649Z,20.90
2018-12-18T02:55:26.084Z,21.00
2018-12-18T02:57:55.316Z,21.00
2018-12-18T03:00:24.481Z,21.10
2018-12-18T03:02:53.702Z,21.00
2018-12-18T03:05:22.913Z,21.00
2018-12-18T03:07:52.076Z,21.00
2018-12-18T03:10:21.298Z,21.00
2018-12-18T03:12:50.593Z,21.00
2018-12-18T03:15:19.747Z,21.00
2018-12-18T03:17:49.016Z,21.00
2018-12-18T03:20:18.207Z,20.90
2018-12-18T03:22:47.667Z,20.90
2018-12-18T03:25:16.905Z,20.80
2018-12-18T03:27:46.144Z,20.70
2018-12-18T03:30:15.312Z,20.70
2018-12-18T03:32:45.039Z,20.80
2018-12-18T03:35:15.447Z,20.30
2018-12-18T03:37:44.665Z,20.40
2018-12-18T03:40:13.903Z,20.60
2018-12-18T03:42:43.066Z,20.60
2018-12-18T03:45:12.310Z,20.60
2018-12-18T03:47:41.501Z,20.60
2018-12-18T03:50:10.749Z,20.60
2018-12-18T03:52:39.934Z,20.70
2018-12-18T03:55:09.135Z,20.70
2018-12-18T03:57:38.679Z,20.70
2018-12-18T04:00:09.350Z,20.70
2018-12-18T04:02:38.500Z,20.70
2018-12-18T04:05:07.777Z,20.60
2018-12-18T04:07:38.049Z,20.60
2018-12-18T04:10:07.347Z,20.40
2018-12-18T04:12:36.521Z,20.20
2018-12-18T04:15:06.177Z,20.10
2018-12-18T04:17:35.467Z,20.20
2018-12-18T04:20:05.036Z,20.10
2018-12-18T04:22:34.199Z,19.60
2018-12-18T04:25:03.416Z,19.30
2018-12-18T04:27:32.638Z,19.30
2018-12-18T04:30:01.835Z,19.50
2018-12-18T04:32:31.068Z,19.50
2018-12-18T04:35:00.316Z,19.60
2018-12-18T04:37:29.553Z,19.80
2018-12-18T04:39:58.738Z,19.80
2018-12-18T04:42:27.949Z,19.80
2018-12-18T04:44:57.154Z,19.90
2018-12-18T04:47:26.365Z,19.90
2018-12-18T04:49:55.654Z,20.00
2018-12-18T04:52:24.882Z,19.90
2018-12-18T04:54:54.089Z,19.90
2018-12-18T04:57:23.298Z,20.00
2018-12-18T04:59:52.717Z,20.00
2018-12-18T05:02:21.866Z,20.00
2018-12-18T05:04:51.081Z,19.80
2018-12-18T05:07:20.240Z,19.40
2018-12-18T05:09:49.448Z,19.40
2018-12-18T05:12:18.590Z,19.20
2018-12-18T05:14:47.791Z,18.70
2018-12-18T05:17:16.930Z,18.60
2018-12-18T05:19:46.090Z,19.00
2018-12-18T05:22:15.311Z,18.80
2018-12-18T05:24:44.515Z,18.80
2018-12-18T05:27:13.696Z,18.90
2018-12-18T05:29:42.902Z,19.00
2018-12-18T05:32:12.117Z,19.20
2018-12-18T05:34:41.337Z,19.40
2018-12-18T05:37:10.502Z,19.50
2018-12-18T05:39:39.653Z,19.50
2018-12-18T05:42:08.805Z,19.50
2018-12-18T05:44:37.999Z,19.10
2018-12-18T05:47:07.193Z,18.80
2018-12-18T05:49:36.375Z,18.30
2018-12-18T05:52:05.509Z,18.10
2018-12-18T05:54:34.703Z,18.10
2018-12-18T05:57:03.880Z,17.80
2018-12-18T05:59:33.085Z,17.70
2018-12-18T06:02:02.559Z,18.10
2018-12-18T06:04:31.723Z,18.50
2018-12-18T06:07:00.997Z,18.00
2018-12-18T06:09:30.155Z,17.80
2018-12-18T06:11:59.338Z,17.90
2018-12-18T06:14:28.533Z,17.90
2018-12-18T06:16:57.679Z,17.60
2018-12-18T06:19:26.830Z,17.60
2018-12-18T06:21:56.053Z,17.60
2018-12-18T06:24:25.274Z,17.70
2018-12-18T06:26:54.531Z,17.50
2018-12-18T06:29:23.766Z,17.60
2018-12-18T06:31:52.950Z,17.20
2018-12-18T06:34:22.159Z,17.10
2018-12-18T06:36:51.345Z,17.20
2018-12-18T06:39:20.563Z,17.40
2018-12-18T06:41:49.712Z,17.40
2018-12-18T06:44:19.296Z,16.90
2018-12-18T06:46:48.496Z,17.20
2018-12-18T06:49:17.693Z,17.20
2018-12-18T06:51:47.852Z,17.20
2018-12-18T06:54:17.024Z,17.20
2018-12-18T06:56:46.219Z,17.00
2018-12-18T06:59:15.377Z,17.10
2018-12-18T07:01:44.530Z,17.00
2018-12-18T07:04:14.058Z,16.90
2018-12-18T07:06:43.318Z,16.70
2018-12-18T07:09:12.494Z,16.70
2018-12-18T07:11:41.730Z,16.70
2018-12-18T07:14:10.933Z,16.90
2018-12-18T07:16:40.108Z,16.80
2018-12-18T07:19:09.282Z,16.80
2018-12-18T07:21:38.481Z,16.90
2018-12-18T07:24:13.851Z,16.80
2018-12-18T07:26:39.131Z,16.80
2018-12-18T07:29:08.315Z,16.80
2018-12-18T07:31:37.528Z,16.50
2018-12-18T07:34:06.733Z,16.60
2018-12-18T07:36:35.868Z,16.70
2018-12-18T07:39:07.168Z,16.90
2018-12-18T07:41:36.435Z,17.00
2018-12-18T07:44:05.610Z,17.00
2018-12-18T07:46:34.943Z,17.00
2018-12-18T07:49:04.129Z,17.00
2018-12-18T07:51:33.290Z,17.20
2018-12-18T07:54:02.438Z,17.20
2018-12-18T07:56:31.608Z,17.40
2018-12-18T07:59:00.775Z,17.40
2018-12-18T08:01:29.996Z,16.90
2018-12-18T08:04:00.789Z,17.10
2018-12-18T08:06:30.292Z,17.00
2018-12-18T08:08:59.489Z,17.20
2018-12-18T08:11:28.643Z,17.30
2018-12-18T08:13:57.812Z,17.20
2018-12-18T08:16:27.066Z,17.00
2018-12-18T08:18:56.344Z,16.80
2018-12-18T08:21:25.515Z,16.80
2018-12-18T08:23:54.795Z,16.90
2018-12-18T08:26:23.970Z,16.70
2018-12-18T08:28:53.147Z,16.80
2018-12-18T08:31:22.438Z,16.90
2018-12-18T08:33:51.633Z,17.20
2018-12-18T08:36:20.778Z,17.40
2018-12-18T08:38:50.167Z,17.40
2018-12-18T08:41:19.510Z,17.40
2018-12-18T08:43:48.758Z,17.20
2018-12-18T08:46:17.975Z,17.00
2018-12-18T08:48:47.184Z,17.00
2018-12-18T08:51:16.402Z,17.00
2018-12-18T08:53:45.556Z,16.90
2018-12-18T08:56:14.756Z,17.10
2018-12-18T08:58:43.953Z,17.10
2018-12-18T09:01:13.184Z,17.10
2018-12-18T09:03:43.105Z,17.10
2018-12-18T09:06:12.520Z,17.20
2018-12-18T09:08:42.136Z,17.40
2018-12-18T09:11:11.324Z,17.40
2018-12-18T09:13:40.467Z,17.60
2018-12-18T09:19:29.765Z,17.40
2018-12-18T09:21:58.994Z,17.30
2018-12-18T09:24:28.167Z,17.40
2018-12-18T09:26:57.335Z,17.40
2018-12-18T09:29:26.556Z,17.30
2018-12-18T09:31:56.589Z,17.10
2018-12-18T09:34:25.887Z,16.90
2018-12-18T09:36:55.230Z,16.90
2018-12-18T09:39:26.648Z,16.90
2018-12-18T09:41:58.013Z,17.20
2018-12-18T09:44:29.491Z,17.40
2018-12-18T09:46:58.684Z,17.60
2018-12-18T09:49:27.902Z,17.60
2018-12-18T09:51:57.125Z,17.50
2018-12-18T09:54:26.418Z,17.40
2018-12-18T09:56:55.660Z,17.50
2018-12-18T09:59:24.849Z,17.50
2018-12-18T10:01:54.064Z,17.30
2018-12-18T10:04:23.284Z,17.50
2018-12-18T10:06:52.507Z,17.20
2018-12-18T10:09:22.525Z,17.20
2018-12-18T10:11:51.731Z,17.00
2018-12-18T10:14:20.974Z,17.20
2018-12-18T10:16:50.170Z,17.20
2018-12-18T10:19:19.423Z,17.40
2018-12-18T10:21:48.640Z,17.60
2018-12-18T10:24:17.842Z,17.70
2018-12-18T10:26:47.011Z,17.40
2018-12-18T10:29:16.169Z,17.50
2018-12-18T10:31:45.325Z,17.50
2018-12-18T10:34:14.529Z,17.50
2018-12-18T10:36:43.759Z,17.60
2018-12-18T10:39:12.966Z,17.50
2018-12-18T10:41:42.147Z,17.60
2018-12-18T10:44:11.349Z,17.30
2018-12-18T10:46:40.523Z,17.10
2018-12-18T10:49:09.731Z,17.30
2018-12-18T10:51:38.921Z,17.20
2018-12-18T10:54:08.224Z,17.00
2018-12-18T10:56:37.441Z,16.80
2018-12-18T10:59:06.609Z,16.70
2018-12-18T11:01:41.130Z,16.50
2018-12-18T11:04:10.426Z,16.50
2018-12-18T11:06:39.658Z,16.60
2018-12-18T11:09:10.298Z,16.60
2018-12-18T11:11:39.706Z,16.60
2018-12-18T11:14:08.933Z,16.60
2018-12-18T11:16:38.103Z,16.70
2018-12-18T11:19:07.280Z,16.90
2018-12-18T11:21:36.513Z,17.00
2018-12-18T11:24:05.711Z,16.90
2018-12-18T11:26:34.881Z,16.60
2018-12-18T11:29:04.128Z,16.60
2018-12-18T11:31:33.327Z,16.60
2018-12-18T11:34:02.535Z,16.70
2018-12-18T11:36:31.773Z,16.90
2018-12-18T11:39:00.998Z,16.80
2018-12-18T11:41:30.388Z,16.70
2018-12-18T11:43:59.721Z,16.60
2018-12-18T11:46:28.916Z,16.50
2018-12-18T11:48:58.342Z,16.40
2018-12-18T11:51:27.561Z,16.70
2018-12-18T11:53:56.769Z,16.80
2018-12-18T11:56:25.994Z,16.70
2018-12-18T11:58:55.230Z,16.50
2018-12-18T12:01:24.438Z,16.60
2018-12-18T12:03:53.647Z,16.80
2018-12-18T12:06:23.201Z,16.90
2018-12-18T12:08:52.622Z,16.70
2018-12-18T12:11:21.809Z,16.70
2018-12-18T12:13:51.365Z,16.80
2018-12-18T12:16:20.589Z,16.70
2018-12-18T12:18:49.748Z,16.70
2018-12-18T12:21:18.945Z,16.60
2018-12-18T12:23:48.109Z,16.30
2018-12-18T12:26:22.857Z,16.30
2018-12-18T12:28:52.125Z,16.10
2018-12-18T12:31:21.353Z,16.30
2018-12-18T12:33:50.890Z,16.20
2018-12-18T12:36:20.121Z,16.20
2018-12-18T12:38:49.346Z,16.30
2018-12-18T12:41:18.574Z,16.50
2018-12-18T12:43:47.987Z,16.60
2018-12-18T12:46:17.368Z,16.40
2018-12-18T12:48:51.868Z,16.30
2018-12-18T12:51:21.158Z,16.40
2018-12-18T12:53:50.397Z,16.30
2018-12-18T12:56:19.625Z,16.40
2018-12-18T12:58:48.800Z,16.60
2018-12-18T13:01:17.983Z,16.60
2018-12-18T13:03:47.307Z,16.70
2018-12-18T13:06:16.451Z,16.50
2018-12-18T13:08:45.654Z,16.50
2018-12-18T13:11:14.924Z,16.40
2018-12-18T13:13:44.105Z,16.50
2018-12-18T13:16:13.682Z,16.50
2018-12-18T13:18:42.875Z,16.40
2018-12-18T13:21:12.076Z,16.60
2018-12-18T13:23:41.308Z,16.80
2018-12-18T13:26:10.633Z,16.80
2018-12-18T13:28:40.213Z,17.00
2018-12-18T13:31:09.396Z,17.10
2018-12-18T13:33:38.618Z,17.10
2018-12-18T13:36:07.871Z,17.10
2018-12-18T13:38:37.152Z,17.20
2018-12-18T13:41:06.383Z,17.20
2018-12-18T13:43:35.567Z,17.10
2018-12-18T13:46:05.718Z,17.20
2018-12-18T13:48:35.129Z,17.20
2018-12-18T13:51:04.387Z,17.20
2018-12-18T13:53:33.577Z,17.30
2018-12-18T13:56:02.853Z,17.40
2018-12-18T13:58:32.081Z,17.50
2018-12-18T14:01:01.506Z,17.60
2018-12-18T14:03:30.851Z,17.70
2018-12-18T14:06:00.043Z,17.80
2018-12-18T14:08:29.216Z,17.90
2018-12-18T14:10:58.556Z,18.00
2018-12-18T14:13:27.709Z,17.90
2018-12-18T14:15:56.949Z,17.80
2018-12-18T14:18:26.573Z,17.90
2018-12-18T14:20:55.811Z,18.00
2018-12-18T14:23:25.038Z,18.10
2018-12-18T14:25:54.306Z,18.20
2018-12-18T14:28:23.494Z,18.30
2018-12-18T14:30:52.682Z,18.60
2018-12-18T14:33:21.846Z,18.60
2018-12-18T14:35:51.079Z,18.60
2018-12-18T14:38:20.325Z,18.80
2018-12-18T14:40:49.625Z,19.10
2018-12-18T14:43:18.849Z,19.30
2018-12-18T14:45:48.193Z,19.50
2018-12-18T14:48:17.398Z,19.60
2018-12-18T14:50:46.651Z,19.30
2018-12-18T14:53:15.876Z,19.40
2018-12-18T14:55:45.062Z,19.60
2018-12-18T14:58:14.567Z,19.90
2018-12-18T15:00:43.806Z,20.30
2018-12-18T15:03:12.970Z,20.60
2018-12-18T15:05:42.504Z,21.00
2018-12-18T15:08:11.753Z,21.70
2018-12-18T15:10:41.063Z,22.20
2018-12-18T15:13:10.334Z,22.30
2018-12-18T15:15:39.560Z,22.40
2018-12-18T15:18:08.870Z,22.20
2018-12-18T15:20:38.340Z,22.10
2018-12-18T15:23:07.520Z,22.00
2018-12-18T15:25:36.751Z,22.00
2018-12-18T15:28:06.009Z,22.00
2018-12-18T15:30:35.308Z,22.00
2018-12-18T15:33:04.715Z,22.10
2018-12-18T15:35:34.709Z,21.90
2018-12-18T15:38:04.058Z,21.80
2018-12-18T15:40:33.535Z,22.20
2018-12-18T15:43:02.751Z,22.70
2018-12-18T15:45:32.068Z,23.60
2018-12-18T15:48:01.396Z,23.70
2018-12-18T15:50:30.658Z,24.20
2018-12-18T15:53:00.582Z,25.20
2018-12-18T15:55:30.776Z,25.80
2018-12-18T15:58:01.141Z,26.30
2018-12-18T16:00:30.416Z,26.30
2018-12-18T16:02:59.621Z,26.70
2018-12-18T16:05:29.493Z,26.70
2018-12-18T16:07:58.724Z,26.30
2018-12-18T16:10:27.905Z,27.20
2018-12-18T16:12:57.166Z,27.70
2018-12-18T16:15:26.450Z,27.90
2018-12-18T16:17:55.693Z,28.10
2018-12-18T16:20:25.956Z,27.10
2018-12-18T16:22:55.351Z,26.60
2018-12-18T16:25:24.602Z,27.10
2018-12-18T16:27:53.827Z,27.30
2018-12-18T16:30:23.032Z,27.50
2018-12-18T16:32:52.316Z,28.10
2018-12-18T16:35:21.492Z,27.80
2018-12-18T16:37:50.781Z,28.00
2018-12-18T16:40:20.096Z,27.90
2018-12-18T16:42:49.308Z,27.20
2018-12-18T16:45:18.557Z,26.70
2018-12-18T16:47:47.779Z,26.60
2018-12-18T16:50:19.348Z,27.00
2018-12-18T16:52:49.128Z,27.40
2018-12-18T16:55:18.398Z,27.20
2018-12-18T16:57:47.684Z,27.40
2018-12-18T17:00:18.391Z,27.00
2018-12-18T17:02:47.594Z,27.10
2018-12-18T17:05:16.813Z,27.40
2018-12-18T17:07:46.064Z,27.00
2018-12-18T17:10:15.298Z,26.10
2018-12-18T17:12:46.771Z,25.90
2018-12-18T17:15:15.977Z,26.30
2018-12-18T17:17:45.160Z,26.70
2018-12-18T17:20:14.330Z,26.50
2018-12-18T17:22:43.659Z,27.30
2018-12-18T17:25:13.115Z,28.10
2018-12-18T17:27:42.377Z,27.90
2018-12-18T17:30:13.202Z,27.60
2018-12-18T17:32:42.516Z,27.90
2018-12-18T17:35:11.682Z,28.40
2018-12-18T17:37:40.866Z,28.20
2018-12-18T17:40:10.206Z,27.90
2018-12-18T17:42:39.429Z,27.40
2018-12-18T17:45:08.746Z,27.50
2018-12-18T17:47:37.993Z,28.20
2018-12-18T17:50:07.870Z,27.40
2018-12-18T17:52:37.094Z,27.00
2018-12-18T17:55:06.376Z,27.30
2018-12-18T17:57:35.602Z,26.90
2018-12-18T18:00:05.290Z,27.40
2018-12-18T18:02:34.549Z,28.00
2018-12-18T18:05:03.811Z,28.60
2018-12-18T18:07:33.071Z,29.10
2018-12-18T18:10:02.293Z,28.90
2018-12-18T18:12:31.526Z,29.20
2018-12-18T18:15:00.749Z,28.60
2018-12-18T18:17:29.969Z,28.50
2018-12-18T18:19:59.246Z,29.00
2018-12-18T18:22:28.607Z,28.80
2018-12-18T18:24:57.882Z,27.90
2018-12-18T18:27:27.613Z,27.50
2018-12-18T18:29:56.844Z,28.80
2018-12-18T18:32:26.177Z,28.60
2018-12-18T18:34:55.349Z,28.50
2018-12-18T18:37:24.583Z,28.90
2018-12-18T18:39:53.757Z,29.70
2018-12-18T18:42:23.026Z,29.20
2018-12-18T18:44:53.015Z,29.00
2018-12-18T18:47:22.234Z,28.90
2018-12-18T18:49:51.399Z,29.60
2018-12-18T18:52:20.702Z,29.70
2018-12-18T18:54:49.953Z,29.10
2018-12-18T18:57:19.197Z,28.80
2018-12-18T18:59:48.676Z,29.20
2018-12-18T19:02:17.885Z,29.30
2018-12-18T19:04:47.096Z,29.10
2018-12-18T19:07:16.403Z,29.60
2018-12-18T19:09:45.589Z,29.90
2018-12-18T19:12:14.848Z,29.30
2018-12-18T19:14:44.100Z,28.80
2018-12-18T19:17:13.286Z,28.70
2018-12-18T19:19:42.510Z,28.30
2018-12-18T19:22:11.767Z,28.90
2018-12-18T19:24:40.979Z,29.00
2018-12-18T19:27:10.171Z,28.80
2018-12-18T19:29:39.944Z,28.70
2018-12-18T19:32:09.182Z,29.10
2018-12-18T19:34:38.458Z,29.70
2018-12-18T19:37:07.710Z,30.00
2018-12-18T19:39:37.008Z,30.60
2018-12-18T19:42:06.282Z,30.80
2018-12-18T19:44:35.557Z,31.20
2018-12-18T19:47:04.832Z,30.90
2018-12-18T19:49:34.017Z,30.90
2018-12-18T19:52:03.287Z,31.10
2018-12-18T19:54:32.532Z,31.20
2018-12-18T19:57:01.796Z,31.50
2018-12-18T19:59:31.259Z,31.60
2018-12-18T20:02:00.624Z,31.50
2018-12-18T20:04:29.851Z,31.70
2018-12-18T20:06:59.162Z,30.90
2018-12-18T20:09:28.421Z,30.10
2018-12-18T20:11:57.647Z,29.90
2018-12-18T20:14:27.165Z,29.00
2018-12-18T20:16:56.541Z,28.80
2018-12-18T20:19:25.858Z,29.10
2018-12-18T20:21:55.098Z,29.80
2018-12-18T20:24:24.358Z,30.30
2018-12-18T20:26:53.729Z,30.20
2018-12-18T20:29:22.909Z,30.50
2018-12-18T20:31:52.367Z,30.90
2018-12-18T20:34:21.648Z,30.90
2018-12-18T20:36:50.875Z,30.70
2018-12-18T20:39:20.127Z,30.10
2018-12-18T20:41:49.337Z,29.70
2018-12-18T20:44:18.502Z,29.90
2018-12-18T20:46:47.704Z,30.10
2018-12-18T20:49:16.862Z,29.80
2018-12-18T20:51:46.565Z,29.40
2018-12-18T20:54:15.760Z,28.90
2018-12-18T20:56:44.946Z,28.90
2018-12-18T20:59:14.146Z,28.90
2018-12-18T21:01:43.378Z,29.00
2018-12-18T21:04:12.559Z,28.40
2018-12-18T21:06:41.776Z,28.10
2018-12-18T21:09:11.014Z,28.30
2018-12-18T21:11:40.239Z,28.70
2018-12-18T21:14:09.519Z,28.60
2018-12-18T21:16:40.290Z,28.40
2018-12-18T21:19:09.487Z,28.20
2018-12-18T21:21:38.759Z,28.50
2018-12-18T21:24:07.958Z,28.30
2018-12-18T21:26:37.243Z,28.40
2018-12-18T21:29:06.540Z,27.90
2018-12-18T21:31:35.776Z,28.40
2018-12-18T21:34:05.262Z,28.50
2018-12-18T21:36:34.496Z,28.20
2018-12-18T21:39:04.000Z,27.80
2018-12-18T21:41:33.197Z,27.90
2018-12-18T21:44:02.480Z,27.70
2018-12-18T21:46:31.696Z,27.40
2018-12-18T21:49:00.902Z,27.30
2018-12-18T21:51:30.126Z,27.40
2018-12-18T21:53:59.285Z,27.10
2018-12-18T21:56:32.709Z,27.00
2018-12-18T21:59:01.955Z,27.00
2018-12-18T22:01:31.345Z,27.10
2018-12-18T22:04:00.606Z,27.10
2018-12-18T22:06:29.885Z,27.00
2018-12-18T22:08:59.125Z,26.80
2018-12-18T22:11:28.501Z,26.50
2018-12-18T22:13:57.700Z,26.20
2018-12-18T22:16:26.927Z,26.10
2018-12-18T22:18:56.141Z,25.70
2018-12-18T22:21:25.384Z,25.50
2018-12-18T22:23:54.613Z,25.40
2018-12-18T22:26:23.853Z,25.50
2018-12-18T22:28:53.057Z,25.30
2018-12-18T22:31:22.250Z,25.20
2018-12-18T22:33:51.542Z,25.00
2018-12-18T22:36:21.151Z,25.30
2018-12-18T22:38:50.391Z,25.50
2018-12-18T22:41:19.628Z,25.70
2018-12-18T22:43:48.925Z,25.70
2018-12-18T22:46:18.242Z,25.90
2018-12-18T22:48:47.484Z,25.60
2018-12-18T22:51:16.669Z,25.70
2018-12-18T22:53:45.916Z,25.40
2018-12-18T22:56:15.220Z,25.30
2018-12-18T22:58:44.437Z,25.10
2018-12-18T23:01:18.994Z,25.30
2018-12-18T23:03:48.246Z,25.40
2018-12-18T23:06:17.462Z,25.40
2018-12-18T23:08:50.201Z,25.50
2018-12-18T23:11:18.443Z,25.50
2018-12-18T23:13:48.143Z,25.30
2018-12-18T23:16:17.387Z,25.40
2018-12-18T23:18:46.594Z,25.30
2018-12-18T23:21:15.785Z,25.20
2018-12-18T23:23:45.105Z,25.30
2018-12-18T23:26:14.336Z,25.30
2018-12-18T23:28:43.625Z,25.30
2018-12-18T23:31:12.859Z,25.30
2018-12-18T23:33:42.082Z,25.20
2018-12-18T23:36:11.260Z,24.90
2018-12-18T23:38:40.971Z,24.70
2018-12-18T23:41:10.143Z,24.70
2018-12-18T23:43:39.423Z,24.60
2018-12-18T23:46:08.663Z,24.50
2018-12-18T23:48:39.860Z,24.50
2018-12-18T23:51:09.668Z,24.30
2018-12-18T23:53:38.922Z,23.90
2018-12-18T23:56:08.165Z,23.60
2018-12-18T23:58:37.419Z,23.20
